Time;durP1;ratioP1;P1;durP2;ratioP2;P2;SDS_P1;SDS_P2;PMS_P1;PMS_P2;Temp;Humidity;BMP_temperature;BMP_pressure;BME280_temperature;BME280_humidity;BME280_pressure;Samples;Min_cycle;Max_cycle;Signal;HPM_P1;HPM_P2
2021/11/18 00:00:23;;;;;;;6.10;5.50;;;8.40;99.90;;;;;;5049897;28;20631;-52
2021/11/18 00:02:49;;;;;;;6.93;6.22;;;8.60;99.90;;;;;;5045804;28;20672;-53
2021/11/18 00:05:16;;;;;;;7.00;6.30;;;8.50;99.90;;;;;;5049876;28;20257;-53
2021/11/18 00:07:50;;;;;;;8.20;7.20;;;8.40;99.90;;;;;;5048909;28;20434;-53
2021/11/18 00:10:28;;;;;;;6.60;5.90;;;8.40;99.90;;;;;;5039856;28;20248;-53
2021/11/18 00:12:57;;;;;;;7.10;6.40;;;8.50;99.90;;;;;;5033080;28;20654;-53
2021/11/18 00:15:26;;;;;;;7.38;6.68;;;8.40;99.90;;;;;;5060577;28;20266;-53
2021/11/18 00:17:58;;;;;;;7.10;6.15;;;8.30;99.90;;;;;;5045868;28;20210;-53
2021/11/18 00:20:30;;;;;;;8.10;7.30;;;8.20;99.90;;;;;;5052191;28;20603;-53
2021/11/18 00:22:56;;;;;;;7.32;6.70;;;8.20;99.90;;;;;;5050672;28;20181;-52
2021/11/18 00:25:23;;;;;;;6.57;5.90;;;7.50;99.90;;;;;;5046467;28;20183;-52
2021/11/18 00:27:49;;;;;;;7.32;6.63;;;7.60;99.90;;;;;;5070407;28;20258;-53
2021/11/18 00:30:15;;;;;;;7.53;6.83;;;8.10;99.90;;;;;;5052549;28;20209;-53
2021/11/18 00:32:42;;;;;;;6.78;6.07;;;8.10;99.90;;;;;;5058933;28;20249;-52
2021/11/18 00:35:11;;;;;;;6.70;6.07;;;8.30;99.90;;;;;;5050893;28;20593;-53
2021/11/18 00:37:37;;;;;;;7.68;6.88;;;8.20;99.90;;;;;;5049618;28;20201;-53
2021/11/18 00:40:05;;;;;;;6.90;6.20;;;8.30;99.90;;;;;;5045428;28;20205;-53
2021/11/18 00:42:31;;;;;;;6.32;5.72;;;8.20;99.90;;;;;;5050156;28;20434;-53
2021/11/18 00:44:57;;;;;;;6.53;5.87;;;7.80;99.90;;;;;;5049825;28;20198;-52
2021/11/18 00:47:24;;;;;;;9.73;6.50;;;8.10;99.90;;;;;;5045409;28;20182;-53
2021/11/18 00:49:50;;;;;;;6.75;6.05;;;8.50;99.90;;;;;;5058307;28;20201;-53
2021/11/18 00:52:16;;;;;;;7.80;6.40;;;8.10;99.90;;;;;;5062865;28;20193;-52
2021/11/18 00:54:42;;;;;;;7.50;6.70;;;8.20;99.90;;;;;;5055338;28;20399;-52
2021/11/18 00:57:08;;;;;;;7.40;6.20;;;8.30;99.90;;;;;;5049119;28;20442;-53
2021/11/18 00:59:34;;;;;;;7.43;6.40;;;8.40;99.90;;;;;;5057457;28;20181;-53
2021/11/18 01:01:59;;;;;;;6.67;6.07;;;8.30;99.90;;;;;;5050718;28;20937;-52
2021/11/18 01:04:27;;;;;;;6.70;6.00;;;8.00;99.90;;;;;;5046064;28;20188;-53
2021/11/18 01:06:53;;;;;;;8.10;6.30;;;8.20;99.90;;;;;;5055390;28;20177;-52
2021/11/18 01:09:19;;;;;;;7.20;6.50;;;8.50;99.90;;;;;;5043979;28;20209;-52
2021/11/18 01:11:46;;;;;;;7.03;6.30;;;8.20;99.90;;;;;;5050602;28;20448;-52
2021/11/18 01:14:14;;;;;;;6.20;5.60;;;8.50;99.90;;;;;;5050089;28;20189;-52
2021/11/18 01:16:41;;;;;;;6.75;6.15;;;8.30;99.90;;;;;;5055475;28;20300;-52
2021/11/18 01:19:08;;;;;;;5.72;5.22;;;8.10;99.90;;;;;;5057266;28;20188;-53
2021/11/18 01:21:35;;;;;;;6.47;5.88;;;8.50;99.90;;;;;;5037032;28;20233;-52
2021/11/18 01:24:02;;;;;;;5.78;5.20;;;8.20;99.90;;;;;;5041802;28;20182;-52
2021/11/18 01:26:27;;;;;;;7.57;6.18;;;8.10;99.90;;;;;;5050142;28;20200;-53
2021/11/18 01:28:53;;;;;;;6.20;5.60;;;8.00;99.90;;;;;;5032779;28;20185;-53
2021/11/18 01:31:20;;;;;;;6.73;5.70;;;8.20;99.90;;;;;;5043403;28;20599;-53
2021/11/18 01:33:46;;;;;;;6.47;5.88;;;8.20;99.90;;;;;;5061364;28;20446;-52
2021/11/18 01:36:12;;;;;;;6.53;5.85;;;8.20;99.90;;;;;;5071522;28;20244;-53
2021/11/18 01:38:37;;;;;;;5.60;5.07;;;8.20;99.90;;;;;;5044624;28;20221;-52
2021/11/18 01:41:08;;;;;;;6.93;6.23;;;8.30;99.90;;;;;;5073251;28;20209;-52
2021/11/18 01:43:39;;;;;;;7.35;6.55;;;8.40;99.90;;;;;;5072002;28;20483;-52
2021/11/18 01:46:07;;;;;;;9.75;6.30;;;8.30;99.90;;;;;;5065124;28;20284;-53
2021/11/18 01:48:33;;;;;;;6.30;5.70;;;8.10;99.90;;;;;;5048781;28;20662;-52
2021/11/18 01:51:01;;;;;;;6.67;5.90;;;8.40;99.90;;;;;;5054578;28;20213;-52
2021/11/18 01:53:36;;;;;;;7.05;6.20;;;8.20;99.90;;;;;;5051294;28;20195;-53
2021/11/18 01:56:04;;;;;;;6.45;5.82;;;8.20;99.90;;;;;;5056465;28;20616;-53
2021/11/18 01:58:30;;;;;;;7.40;6.55;;;8.30;99.90;;;;;;5052364;28;20196;-53
2021/11/18 02:00:57;;;;;;;6.80;6.10;;;8.10;99.90;;;;;;5052379;28;20280;-53
2021/11/18 02:03:23;;;;;;;7.53;6.43;;;8.00;99.90;;;;;;5053015;28;20464;-52
2021/11/18 02:05:54;;;;;;;6.33;5.83;;;8.00;99.90;;;;;;5061979;28;20181;-52
2021/11/18 02:08:21;;;;;;;9.13;5.97;;;8.10;99.90;;;;;;5046089;28;20430;-53
2021/11/18 02:10:49;;;;;;;6.65;5.90;;;7.90;99.90;;;;;;5050412;28;20214;-52
2021/11/18 02:13:17;;;;;;;6.05;5.30;;;8.00;99.90;;;;;;5052986;28;20185;-52
2021/11/18 02:15:47;;;;;;;6.40;5.80;;;7.90;99.90;;;;;;5063710;28;20177;-52
2021/11/18 02:18:21;;;;;;;7.07;6.32;;;8.10;99.90;;;;;;5050505;28;20221;-52
2021/11/18 02:20:49;;;;;;;6.75;5.78;;;8.00;99.90;;;;;;5065119;28;20211;-52
2021/11/18 02:23:19;;;;;;;6.50;5.20;;;7.40;99.90;;;;;;5051227;28;20239;-52
2021/11/18 02:25:49;;;;;;;6.50;5.65;;;8.20;99.90;;;;;;5046575;28;20609;-52
2021/11/18 02:28:16;;;;;;;7.25;6.55;;;8.00;99.90;;;;;;5035643;28;20189;-52
2021/11/18 02:30:42;;;;;;;6.78;6.15;;;7.90;99.90;;;;;;5052078;28;20201;-52
2021/11/18 02:33:08;;;;;;;7.87;5.80;;;8.00;99.90;;;;;;5052403;28;20188;-52
2021/11/18 02:35:36;;;;;;;7.30;5.65;;;7.60;99.90;;;;;;5052742;28;20433;-51
2021/11/18 02:38:03;;;;;;;6.60;6.00;;;8.10;99.90;;;;;;5051784;28;20205;-52
2021/11/18 02:40:29;;;;;;;7.05;6.28;;;8.10;99.90;;;;;;5028494;28;20202;-52
2021/11/18 02:42:57;;;;;;;5.50;5.00;;;8.10;99.90;;;;;;5053610;28;20677;-52
2021/11/18 02:45:26;;;;;;;6.47;5.65;;;8.10;99.90;;;;;;5052438;28;20485;-52
2021/11/18 02:47:52;;;;;;;7.28;6.57;;;8.20;99.90;;;;;;5049571;28;20213;-52
2021/11/18 02:50:20;;;;;;;6.87;6.03;;;8.30;99.90;;;;;;5052476;28;20623;-52
2021/11/18 02:52:47;;;;;;;6.47;5.10;;;8.10;99.90;;;;;;5056458;28;20295;-52
2021/11/18 02:55:17;;;;;;;6.05;5.18;;;8.30;99.90;;;;;;5067222;28;20241;-52
2021/11/18 02:57:44;;;;;;;6.22;5.63;;;8.30;99.90;;;;;;5051041;28;20315;-52
2021/11/18 03:00:23;;;;;;;6.55;5.85;;;8.00;99.90;;;;;;5050722;28;20923;-52
2021/11/18 03:02:48;;;;;;;6.68;5.85;;;8.10;99.90;;;;;;5052027;28;20195;-51
2021/11/18 03:05:18;;;;;;;6.90;6.20;;;7.90;99.90;;;;;;5052266;28;20250;-53
2021/11/18 03:07:44;;;;;;;7.88;7.10;;;8.20;99.90;;;;;;5050234;28;20189;-51
2021/11/18 03:10:11;;;;;;;5.55;4.95;;;8.20;99.90;;;;;;5048252;28;20221;-53
2021/11/18 03:12:37;;;;;;;6.50;5.80;;;8.20;99.90;;;;;;5055966;28;20212;-53
2021/11/18 03:15:05;;;;;;;5.80;5.30;;;8.10;99.90;;;;;;5071749;28;20216;-53
2021/11/18 03:17:31;;;;;;;8.25;5.20;;;8.00;99.90;;;;;;5059147;28;20565;-53
2021/11/18 03:19:57;;;;;;;10.37;5.27;;;8.00;99.90;;;;;;5048199;28;20288;-52
2021/11/18 03:22:23;;;;;;;6.90;5.72;;;8.30;99.90;;;;;;5045886;28;20751;-53
2021/11/18 03:24:49;;;;;;;6.13;5.43;;;8.20;99.90;;;;;;5036430;28;20273;-51
2021/11/18 03:27:14;;;;;;;6.50;5.87;;;8.30;99.90;;;;;;5061999;28;20211;-54
2021/11/18 03:29:40;;;;;;;7.10;6.40;;;8.40;99.90;;;;;;5051472;28;20225;-50
2021/11/18 03:32:06;;;;;;;6.57;5.93;;;8.20;99.90;;;;;;5033327;28;20284;-51
2021/11/18 03:34:35;;;;;;;6.57;5.75;;;8.10;99.90;;;;;;5068601;28;20692;-52
2021/11/18 03:37:02;;;;;;;6.35;5.20;;;8.10;99.90;;;;;;5069606;28;20200;-51
2021/11/18 03:39:28;;;;;;;6.32;5.68;;;8.20;99.90;;;;;;5042916;28;20260;-52
2021/11/18 03:41:59;;;;;;;6.50;5.85;;;8.20;99.90;;;;;;5058118;28;20181;-52
2021/11/18 03:44:25;;;;;;;8.55;6.05;;;8.20;99.90;;;;;;5056023;28;20673;-51
2021/11/18 03:47:07;;;;;;;8.88;6.60;;;8.50;99.90;;;;;;5050808;28;20217;-52
2021/11/18 03:49:34;;;;;;;7.03;6.00;;;8.30;99.90;;;;;;5032702;28;20194;-51
2021/11/18 03:52:03;;;;;;;6.90;6.20;;;8.50;99.90;;;;;;5040431;28;20198;-52
2021/11/18 03:54:31;;;;;;;6.80;6.10;;;8.50;99.90;;;;;;5050019;28;20189;-52
2021/11/18 03:56:57;;;;;;;8.02;5.35;;;8.50;99.90;;;;;;5058153;28;20205;-52
2021/11/18 03:59:26;;;;;;;6.28;5.65;;;8.40;99.90;;;;;;5064696;28;20192;-51
2021/11/18 04:01:54;;;;;;;6.80;6.10;;;8.20;99.90;;;;;;5063893;28;20189;-52
2021/11/18 04:04:23;;;;;;;7.47;5.80;;;8.40;99.90;;;;;;5050678;28;20273;-52
2021/11/18 04:06:50;;;;;;;6.00;5.38;;;8.10;99.90;;;;;;5055233;28;20553;-51
2021/11/18 04:09:17;;;;;;;7.97;6.80;;;7.60;99.90;;;;;;5048861;28;20271;-50
2021/11/18 04:11:45;;;;;;;7.70;6.15;;;8.20;99.90;;;;;;5049233;28;20201;-51
2021/11/18 04:14:12;;;;;;;7.28;6.00;;;8.40;99.90;;;;;;5050987;28;20216;-51
2021/11/18 04:16:39;;;;;;;8.90;7.38;;;8.20;99.90;;;;;;5052608;28;20233;-51
2021/11/18 04:19:05;;;;;;;7.68;6.90;;;8.40;99.90;;;;;;5043851;28;20269;-52
2021/11/18 04:21:31;;;;;;;7.33;6.60;;;8.40;99.90;;;;;;5050098;28;20616;-50
2021/11/18 04:23:59;;;;;;;8.88;5.93;;;8.30;99.90;;;;;;5042908;28;20420;-51
2021/11/18 04:26:25;;;;;;;8.02;6.35;;;8.20;99.90;;;;;;5049276;28;20178;-51
2021/11/18 04:28:50;;;;;;;8.30;7.13;;;8.40;99.90;;;;;;5057598;28;20239;-51
2021/11/18 04:31:18;;;;;;;25.80;18.30;;;7.70;99.90;;;;;;5050571;28;20463;-51
2021/11/18 04:33:45;;;;;;;7.70;6.90;;;8.00;99.90;;;;;;5050014;28;20218;-51
2021/11/18 04:36:14;;;;;;;7.00;6.30;;;8.10;99.90;;;;;;5061865;28;20216;-51
2021/11/18 04:38:41;;;;;;;7.93;7.00;;;8.30;99.90;;;;;;5031154;28;20178;-51
2021/11/18 04:41:08;;;;;;;6.90;5.80;;;8.20;99.90;;;;;;5050539;28;20200;-51
2021/11/18 04:43:34;;;;;;;6.93;6.10;;;8.30;99.90;;;;;;5070684;28;20185;-51
2021/11/18 04:46:01;;;;;;;8.30;6.85;;;8.10;99.90;;;;;;5061728;28;20586;-52
2021/11/18 04:48:27;;;;;;;8.55;6.82;;;8.20;99.90;;;;;;5054366;28;20208;-52
2021/11/18 04:50:52;;;;;;;8.10;7.05;;;8.10;99.90;;;;;;5065972;28;20205;-52
2021/11/18 04:53:19;;;;;;;10.20;7.93;;;7.90;99.90;;;;;;5050686;28;20538;-52
2021/11/18 04:55:46;;;;;;;8.80;6.93;;;8.20;99.90;;;;;;5050383;28;20646;-52
2021/11/18 04:58:13;;;;;;;8.85;7.97;;;8.00;99.90;;;;;;5053854;28;20669;-51
2021/11/18 05:00:45;;;;;;;9.52;7.80;;;8.20;99.90;;;;;;5069125;28;20520;-52
2021/11/18 05:03:11;;;;;;;7.85;7.03;;;8.30;99.90;;;;;;5049258;28;20204;-52
2021/11/18 05:05:37;;;;;;;9.65;7.57;;;8.20;99.90;;;;;;5058146;28;20182;-52
2021/11/18 05:08:03;;;;;;;8.03;6.87;;;8.30;99.90;;;;;;5057669;28;20187;-53
2021/11/18 05:10:34;;;;;;;8.00;7.00;;;8.20;99.90;;;;;;5044588;28;20241;-53
2021/11/18 05:12:59;;;;;;;8.80;7.90;;;8.50;99.90;;;;;;5053880;28;20216;-52
2021/11/18 05:15:31;;;;;;;9.03;7.40;;;8.10;99.90;;;;;;5062919;28;20188;-53
2021/11/18 05:17:56;;;;;;;7.82;7.03;;;8.00;99.90;;;;;;5066628;28;20544;-52
2021/11/18 05:20:23;;;;;;;13.30;8.83;;;8.00;99.90;;;;;;5053188;28;20206;-52
2021/11/18 05:22:50;;;;;;;10.00;8.65;;;8.30;99.90;;;;;;5053699;28;20176;-52
2021/11/18 05:25:17;;;;;;;10.77;7.25;;;7.60;99.90;;;;;;5046379;28;20579;-51
2021/11/18 05:27:43;;;;;;;10.15;9.15;;;8.40;99.90;;;;;;5054574;28;20194;-51
2021/11/18 05:30:10;;;;;;;11.33;8.57;;;8.30;99.90;;;;;;5073575;28;20216;-50
2021/11/18 05:32:36;;;;;;;8.88;7.97;;;8.20;99.90;;;;;;5062742;28;20398;-51
2021/11/18 05:35:03;;;;;;;8.90;8.00;;;7.80;99.90;;;;;;5070538;28;20264;-52
2021/11/18 05:37:28;;;;;;;9.00;8.10;;;8.00;99.90;;;;;;5058768;28;20661;-52
2021/11/18 05:39:54;;;;;;;11.23;8.20;;;7.90;99.90;;;;;;5049516;28;20246;-52
2021/11/18 05:42:20;;;;;;;9.83;8.50;;;8.20;99.90;;;;;;5052092;28;20189;-52
2021/11/18 05:44:48;;;;;;;9.20;7.80;;;7.70;99.90;;;;;;5054308;28;20182;-51
2021/11/18 05:47:15;;;;;;;8.68;7.78;;;8.20;99.90;;;;;;5053761;28;20677;-52
2021/11/18 05:49:40;;;;;;;10.50;7.65;;;8.30;99.90;;;;;;5042128;28;20201;-52
2021/11/18 05:52:06;;;;;;;11.00;8.77;;;8.40;99.90;;;;;;5070550;28;20180;-52
2021/11/18 05:54:32;;;;;;;11.07;9.40;;;8.10;99.90;;;;;;5065284;28;20212;-52
2021/11/18 05:56:57;;;;;;;9.73;8.70;;;8.10;99.90;;;;;;5067369;28;20213;-52
2021/11/18 05:59:23;;;;;;;9.03;8.13;;;7.90;99.90;;;;;;5066814;28;20265;-51
2021/11/18 06:01:49;;;;;;;11.77;9.73;;;8.10;99.90;;;;;;5054172;28;20522;-51
2021/11/18 06:04:14;;;;;;;9.73;8.57;;;8.00;99.90;;;;;;5060804;28;20624;-52
2021/11/18 06:06:40;;;;;;;12.27;9.07;;;8.00;99.90;;;;;;5055230;28;20670;-51
2021/11/18 06:09:05;;;;;;;9.27;8.30;;;8.20;99.90;;;;;;5057604;28;20224;-52
2021/11/18 06:11:34;;;;;;;12.17;8.50;;;8.50;99.90;;;;;;5035719;28;20709;-51
2021/11/18 06:14:00;;;;;;;10.43;8.85;;;8.20;99.90;;;;;;5057503;28;20283;-51
2021/11/18 06:16:26;;;;;;;9.93;8.40;;;8.30;99.90;;;;;;5055791;28;20213;-57
2021/11/18 06:18:54;;;;;;;14.37;10.50;;;8.10;99.90;;;;;;5059893;28;20261;-51
2021/11/18 06:21:21;;;;;;;10.13;8.20;;;8.00;99.90;;;;;;5048223;28;20468;-51
2021/11/18 06:23:47;;;;;;;9.05;7.65;;;8.40;99.90;;;;;;5050343;28;20182;-52
2021/11/18 06:26:14;;;;;;;10.93;7.43;;;8.30;99.90;;;;;;5064289;28;20186;-52
2021/11/18 06:28:41;;;;;;;10.98;9.35;;;8.00;99.90;;;;;;5062125;28;20185;-51
2021/11/18 06:31:12;;;;;;;11.63;8.80;;;8.20;99.90;;;;;;5038080;28;20222;-51
2021/11/18 06:33:38;;;;;;;17.50;9.27;;;8.40;99.90;;;;;;5057667;28;20643;-52
2021/11/18 06:36:04;;;;;;;12.97;8.83;;;8.30;99.90;;;;;;5055060;28;20582;-52
2021/11/18 06:38:30;;;;;;;14.63;9.20;;;8.30;99.90;;;;;;5054024;28;20515;-52
2021/11/18 06:40:55;;;;;;;10.93;8.63;;;8.20;99.90;;;;;;5047741;28;20297;-53
2021/11/18 06:43:23;;;;;;;10.93;8.97;;;8.40;99.90;;;;;;5055483;22;20620;-50
2021/11/18 06:45:49;;;;;;;11.50;9.15;;;8.40;99.90;;;;;;5038446;28;20497;-49
2021/11/18 06:48:22;;;;;;;10.15;9.10;;;8.60;99.90;;;;;;5038395;28;20186;-49
2021/11/18 06:50:47;;;;;;;13.35;10.30;;;8.20;99.90;;;;;;5032364;28;20214;-49
2021/11/18 06:53:14;;;;;;;11.93;8.87;;;8.50;99.90;;;;;;5030081;28;20197;-49
2021/11/18 06:55:41;;;;;;;10.88;9.10;;;8.70;99.90;;;;;;5041331;28;20445;-49
2021/11/18 06:58:06;;;;;;;10.48;8.43;;;8.80;99.90;;;;;;5031079;28;20224;-50
2021/11/18 07:00:33;;;;;;;12.37;9.63;;;8.50;99.90;;;;;;5017248;28;20296;-50
2021/11/18 07:02:59;;;;;;;14.00;9.13;;;8.60;99.90;;;;;;5030885;28;20430;-49
2021/11/18 07:05:25;;;;;;;9.10;8.20;;;8.50;99.90;;;;;;5033996;28;20175;-49
2021/11/18 07:07:51;;;;;;;12.77;8.90;;;8.90;99.90;;;;;;5029190;28;20476;-49
2021/11/18 07:10:17;;;;;;;12.60;9.77;;;8.60;99.90;;;;;;5028082;28;20475;-50
2021/11/18 07:12:42;;;;;;;11.32;9.00;;;8.60;99.90;;;;;;5033518;28;20194;-50
2021/11/18 07:15:11;;;;;;;10.10;9.00;;;8.10;99.90;;;;;;5037194;28;20189;-49
2021/11/18 07:17:38;;;;;;;10.05;7.85;;;8.70;99.90;;;;;;5032770;28;20217;-53
2021/11/18 07:20:06;;;;;;;10.15;8.07;;;8.80;99.90;;;;;;5037204;28;20340;-49
2021/11/18 07:22:32;;;;;;;12.63;8.75;;;8.80;99.90;;;;;;5033346;28;20185;-49
2021/11/18 07:24:59;;;;;;;12.33;9.20;;;8.80;99.90;;;;;;5034425;28;20194;-49
2021/11/18 07:27:25;;;;;;;10.73;8.48;;;8.90;99.90;;;;;;5033178;28;20197;-48
2021/11/18 07:29:51;;;;;;;9.55;8.27;;;8.70;99.90;;;;;;5034309;28;20206;-50
2021/11/18 07:32:27;;;;;;;9.63;8.63;;;9.00;99.90;;;;;;5033265;28;20626;-49
2021/11/18 07:34:59;;;;;;;12.35;9.10;;;9.00;99.90;;;;;;5013257;28;20481;-49
2021/11/18 07:37:26;;;;;;;12.00;9.70;;;9.00;99.90;;;;;;5043140;28;20213;-49
2021/11/18 07:39:52;;;;;;;9.30;8.13;;;8.80;99.90;;;;;;5026043;28;20209;-50
2021/11/18 07:42:17;;;;;;;11.83;8.73;;;8.70;99.90;;;;;;5040686;28;20242;-50
2021/11/18 07:44:43;;;;;;;9.70;7.87;;;8.70;99.90;;;;;;5043488;28;20655;-52
2021/11/18 07:47:09;;;;;;;9.30;8.30;;;8.30;99.90;;;;;;5028854;28;20187;-50
2021/11/18 07:49:35;;;;;;;10.65;8.20;;;8.90;99.90;;;;;;5035658;28;20932;-51
2021/11/18 07:52:01;;;;;;;8.60;7.60;;;8.90;99.90;;;;;;5033958;28;20189;-51
2021/11/18 07:54:27;;;;;;;10.80;8.17;;;8.80;99.90;;;;;;5036773;28;20411;-50
2021/11/18 07:56:53;;;;;;;10.77;8.20;;;8.90;99.90;;;;;;5039496;28;20217;-51
2021/11/18 07:59:19;;;;;;;12.50;8.75;;;9.00;99.90;;;;;;5036494;28;20268;-51
2021/11/18 08:01:46;;;;;;;11.32;8.40;;;8.90;99.90;;;;;;5029087;28;20198;-51
2021/11/18 08:04:12;;;;;;;11.13;8.80;;;9.00;99.90;;;;;;5035877;28;20208;-51
2021/11/18 08:06:39;;;;;;;12.10;8.82;;;9.00;99.90;;;;;;5039684;28;20202;-49
2021/11/18 08:09:05;;;;;;;12.27;8.75;;;8.90;99.90;;;;;;5033029;28;20181;-49
2021/11/18 08:11:38;;;;;;;10.57;8.20;;;9.20;99.90;;;;;;5045664;28;20202;-52
2021/11/18 08:14:05;;;;;;;10.40;7.85;;;9.20;99.90;;;;;;5041312;28;20193;-50
2021/11/18 08:16:31;;;;;;;11.95;9.52;;;9.10;99.90;;;;;;5032885;28;20206;-50
2021/11/18 08:18:57;;;;;;;17.60;11.60;;;9.30;99.90;;;;;;5034696;28;20183;-50
2021/11/18 08:21:24;;;;;;;13.00;9.52;;;9.30;99.90;;;;;;5043790;28;20323;-50
2021/11/18 08:23:50;;;;;;;15.90;9.45;;;9.20;99.90;;;;;;5035680;28;20189;-50
2021/11/18 08:26:17;;;;;;;12.90;9.07;;;9.30;99.90;;;;;;5032949;28;20203;-52
2021/11/18 08:28:44;;;;;;;14.73;9.55;;;9.20;99.90;;;;;;5031635;28;20559;-53
2021/11/18 08:31:12;;;;;;;13.30;10.13;;;9.00;99.90;;;;;;5032893;28;20202;-52
2021/11/18 08:33:38;;;;;;;13.32;10.13;;;9.20;99.90;;;;;;5028204;28;20228;-52
2021/11/18 08:36:04;;;;;;;23.45;11.25;;;9.50;99.90;;;;;;5046433;28;20273;-50
2021/11/18 08:38:30;;;;;;;19.35;12.13;;;8.90;99.90;;;;;;5034501;28;20197;-51
2021/11/18 08:41:02;;;;;;;21.30;12.40;;;9.20;99.90;;;;;;5037424;28;20202;-51
2021/11/18 08:43:29;;;;;;;20.23;11.23;;;9.10;99.90;;;;;;5042521;28;20540;-51
2021/11/18 08:45:55;;;;;;;13.65;10.25;;;8.80;99.90;;;;;;5035394;28;20233;-50
2021/11/18 08:48:21;;;;;;;19.60;11.55;;;9.60;99.90;;;;;;5043847;28;20686;-50
2021/11/18 08:50:50;;;;;;;20.95;11.07;;;9.20;99.90;;;;;;5039662;28;20208;-50
2021/11/18 08:53:16;;;;;;;17.05;10.73;;;8.80;99.90;;;;;;5042988;28;20677;-52
2021/11/18 08:55:43;;;;;;;18.05;11.73;;;9.20;99.90;;;;;;5034236;28;20197;-50
2021/11/18 08:58:11;;;;;;;16.38;10.90;;;9.50;99.90;;;;;;5033196;28;20632;-50
2021/11/18 09:00:46;;;;;;;16.60;10.35;;;9.50;99.90;;;;;;5038249;28;20210;-50
2021/11/18 09:03:13;;;;;;;17.23;10.68;;;9.70;99.90;;;;;;5039136;28;20186;-49
2021/11/18 09:05:39;;;;;;;18.27;10.80;;;10.00;99.90;;;;;;5047190;28;20178;-51
2021/11/18 09:08:06;;;;;;;17.42;11.20;;;10.00;99.90;;;;;;5033453;28;20679;-51
2021/11/18 09:10:34;;;;;;;15.65;10.93;;;9.80;99.90;;;;;;5037373;28;20202;-49
2021/11/18 09:13:00;;;;;;;14.38;9.05;;;9.80;99.90;;;;;;5036198;28;20221;-50
2021/11/18 09:15:28;;;;;;;14.05;10.48;;;9.90;99.90;;;;;;5029197;28;20190;-50
2021/11/18 09:17:55;;;;;;;13.13;11.13;;;9.80;99.90;;;;;;5031977;28;20365;-50
2021/11/18 09:20:23;;;;;;;15.65;10.10;;;9.80;99.90;;;;;;5034088;28;20629;-51
2021/11/18 09:22:49;;;;;;;14.23;9.73;;;9.90;99.90;;;;;;5029478;28;20635;-51
2021/11/18 09:25:17;;;;;;;17.08;10.63;;;9.40;99.90;;;;;;5026190;28;20678;-51
2021/11/18 09:27:49;;;;;;;14.15;9.82;;;9.70;99.90;;;;;;5037432;28;20179;-52
2021/11/18 09:30:23;;;;;;;17.10;10.13;;;9.60;99.90;;;;;;5012557;28;20216;-53
2021/11/18 09:32:49;;;;;;;17.30;9.77;;;9.00;99.90;;;;;;5029549;28;20268;-51
2021/11/18 09:35:19;;;;;;;19.85;11.05;;;9.40;99.90;;;;;;5023754;28;20186;-50
2021/11/18 09:37:45;;;;;;;15.10;9.85;;;9.40;99.90;;;;;;5028927;28;20221;-52
2021/11/18 09:40:18;;;;;;;16.77;11.13;;;9.20;99.90;;;;;;5033047;28;20201;-51
2021/11/18 09:43:13;;;;;;;14.90;10.48;;;9.60;99.90;;;;;;5028305;28;20232;-52
2021/11/18 09:45:47;;;;;;;19.65;9.70;;;9.80;99.90;;;;;;5035975;28;20189;-51
2021/11/18 09:48:39;;;;;;;13.68;9.25;;;9.60;99.90;;;;;;5038060;28;20247;-51
2021/11/18 09:51:45;;;;;;;15.05;9.48;;;10.20;99.90;;;;;;5034410;28;20210;-50
2021/11/18 09:54:20;;;;;;;14.77;9.90;;;10.20;99.90;;;;;;5040380;28;20272;-50
2021/11/18 09:57:10;;;;;;;14.77;9.63;;;10.20;99.90;;;;;;5039904;28;20206;-51
2021/11/18 10:00:14;;;;;;;17.58;10.25;;;10.20;99.90;;;;;;5036772;28;20277;-51
2021/11/18 10:03:06;;;;;;;14.40;9.80;;;10.00;99.90;;;;;;5031940;28;20188;-51
2021/11/18 10:05:56;;;;;;;14.70;10.50;;;9.90;99.90;;;;;;5016479;28;20294;-51
2021/11/18 10:08:27;;;;;;;14.80;9.65;;;9.90;99.90;;;;;;5042536;28;20208;-51
2021/11/18 10:11:17;;;;;;;12.70;8.98;;;10.10;99.90;;;;;;5028737;28;20560;-51
2021/11/18 10:14:16;;;;;;;14.57;10.52;;;10.50;99.90;;;;;;5035277;28;20193;-51
2021/11/18 10:16:50;;;;;;;13.65;9.63;;;10.50;99.90;;;;;;5035574;28;20739;-50
2021/11/18 10:19:26;;;;;;;14.25;9.93;;;10.90;99.90;;;;;;5030482;28;20258;-50
2021/11/18 10:21:51;;;;;;;17.38;9.80;;;11.20;99.90;;;;;;5039293;28;20271;-49
2021/11/18 10:24:21;;;;;;;15.33;9.37;;;11.50;99.90;;;;;;5033635;28;20272;-50
2021/11/18 10:27:09;;;;;;;15.70;9.35;;;11.40;99.90;;;;;;5042434;28;20198;-51
2021/11/18 10:29:37;;;;;;;11.73;9.60;;;11.70;99.90;;;;;;5036110;28;20242;-50
2021/11/18 10:32:09;;;;;;;12.38;8.65;;;11.20;99.90;;;;;;5038336;28;20198;-51
2021/11/18 10:34:49;;;;;;;12.57;9.75;;;10.90;99.90;;;;;;5029538;28;20650;-51
2021/11/18 10:37:22;;;;;;;10.82;8.73;;;11.40;99.90;;;;;;5040934;28;20210;-50
2021/11/18 10:39:53;;;;;;;16.55;10.48;;;12.00;99.90;;;;;;5032289;28;20196;-51
2021/11/18 10:42:19;;;;;;;11.68;9.13;;;11.80;99.90;;;;;;5032732;28;20514;-49
2021/11/18 10:45:03;;;;;;;14.30;10.73;;;11.90;99.90;;;;;;5029460;28;20201;-51
2021/11/18 10:47:32;;;;;;;12.32;9.27;;;11.70;99.90;;;;;;5031125;28;20264;-49
2021/11/18 10:50:09;;;;;;;11.65;9.82;;;11.80;99.90;;;;;;5041799;28;20210;-50
2021/11/18 10:52:38;;;;;;;17.35;9.50;;;12.00;99.90;;;;;;5039805;28;20184;-49
2021/11/18 10:55:26;;;;;;;12.70;9.13;;;12.00;99.90;;;;;;5048864;28;20284;-50
2021/11/18 10:58:04;;;;;;;11.90;9.50;;;11.80;99.90;;;;;;5036735;28;20511;-50
2021/11/18 11:00:41;;;;;;;13.18;9.43;;;11.80;99.90;;;;;;5035634;28;20205;-49
2021/11/18 11:03:35;;;;;;;11.52;7.80;;;11.80;99.90;;;;;;5032261;28;20179;-49
2021/11/18 11:06:11;;;;;;;11.27;8.60;;;11.90;99.90;;;;;;5033105;28;20181;-49
2021/11/18 11:08:38;;;;;;;10.65;8.15;;;11.80;99.90;;;;;;5035131;28;20969;-50
2021/11/18 11:11:18;;;;;;;9.35;7.90;;;11.80;99.90;;;;;;5038211;28;20271;-49
2021/11/18 11:14:02;;;;;;;10.38;7.40;;;11.80;99.90;;;;;;5036234;28;20181;-49
2021/11/18 11:16:41;;;;;;;13.80;8.60;;;11.60;99.90;;;;;;5040827;28;20284;-50
2021/11/18 11:19:15;;;;;;;9.55;7.95;;;11.80;99.90;;;;;;5035960;28;20215;-50
2021/11/18 11:22:24;;;;;;;9.15;7.68;;;11.90;99.90;;;;;;5035806;28;20618;-48
2021/11/18 11:25:05;;;;;;;8.48;6.68;;;12.10;99.90;;;;;;5027702;28;20196;-49
2021/11/18 11:28:01;;;;;;;10.85;8.05;;;11.80;99.90;;;;;;5039184;28;20249;-50
2021/11/18 11:31:04;;;;;;;9.98;7.57;;;11.80;99.90;;;;;;5040778;28;20232;-50
2021/11/18 11:33:34;;;;;;;10.43;8.10;;;12.00;99.90;;;;;;5039244;28;20627;-49
2021/11/18 11:36:10;;;;;;;9.45;7.18;;;11.80;99.90;;;;;;5033257;28;20191;-49
2021/11/18 11:38:51;;;;;;;8.63;7.15;;;11.70;99.90;;;;;;5033528;28;20205;-50
2021/11/18 11:41:44;;;;;;;9.55;7.88;;;11.70;99.90;;;;;;5022649;28;20734;-49
2021/11/18 11:44:20;;;;;;;11.98;8.05;;;11.90;99.90;;;;;;5040515;28;20195;-49
2021/11/18 11:46:59;;;;;;;9.70;7.70;;;11.80;99.90;;;;;;5033612;28;20184;-48
2021/11/18 11:49:31;;;;;;;7.93;6.97;;;11.60;99.90;;;;;;5033155;28;20561;-48
2021/11/18 11:52:13;;;;;;;8.13;6.80;;;11.70;99.90;;;;;;5037694;28;20193;-49
2021/11/18 11:54:48;;;;;;;10.98;8.15;;;11.40;99.90;;;;;;5021187;28;20658;-49
2021/11/18 11:57:26;;;;;;;9.43;6.72;;;11.20;99.90;;;;;;5031109;28;20205;-49
2021/11/18 12:00:09;;;;;;;9.50;8.00;;;11.20;99.90;;;;;;5035197;28;20216;-49
2021/11/18 12:02:42;;;;;;;12.20;8.05;;;11.30;99.90;;;;;;5032567;28;20601;-49
2021/11/18 12:05:19;;;;;;;11.43;8.88;;;11.50;99.90;;;;;;5032681;28;20194;-50
2021/11/18 12:08:24;;;;;;;10.52;8.00;;;11.40;99.90;;;;;;5050091;28;20186;-49
2021/11/18 12:11:07;;;;;;;12.55;9.35;;;11.40;99.90;;;;;;5018026;28;20214;-50
2021/11/18 12:13:42;;;;;;;14.50;8.55;;;11.40;99.90;;;;;;5049631;28;20195;-49
2021/11/18 12:16:24;;;;;;;10.57;9.02;;;11.10;99.90;;;;;;5031312;28;20721;-49
2021/11/18 12:18:54;;;;;;;11.10;8.63;;;11.00;99.90;;;;;;5040872;28;20199;-49
2021/11/18 12:21:22;;;;;;;11.82;9.05;;;11.30;99.90;;;;;;5035341;28;20733;-49
2021/11/18 12:24:14;;;;;;;9.38;7.90;;;11.10;99.90;;;;;;5023190;28;20530;-48
2021/11/18 12:26:48;;;;;;;12.20;8.98;;;11.50;99.90;;;;;;5040631;28;20196;-49
2021/11/18 12:29:17;;;;;;;8.23;7.32;;;11.40;99.90;;;;;;5027903;28;20187;-49
2021/11/18 12:32:03;;;;;;;10.82;9.38;;;11.30;99.90;;;;;;5040082;28;20228;-50
2021/11/18 12:35:03;;;;;;;11.90;8.75;;;11.50;99.90;;;;;;5033339;28;20530;-49
2021/11/18 12:37:55;;;;;;;9.70;8.32;;;11.10;99.90;;;;;;5026564;28;20202;-49
2021/11/18 12:40:59;;;;;;;10.15;9.15;;;11.30;99.90;;;;;;5044759;28;20211;-49
2021/11/18 12:44:03;;;;;;;7.88;7.07;;;11.40;99.90;;;;;;5031160;28;20222;-49
2021/11/18 12:46:50;;;;;;;7.35;6.57;;;11.20;99.90;;;;;;5038099;28;20279;-48
2021/11/18 12:49:44;;;;;;;8.93;7.63;;;11.10;99.90;;;;;;5021168;28;20182;-49
2021/11/18 12:52:28;;;;;;;9.30;8.40;;;11.30;99.90;;;;;;5005288;28;20789;-50
2021/11/18 12:55:12;;;;;;;9.10;7.70;;;11.40;99.90;;;;;;5036968;28;20558;-51
2021/11/18 12:58:19;;;;;;;8.88;6.75;;;11.00;99.90;;;;;;5042755;28;20204;-50
2021/11/18 13:00:48;;;;;;;7.50;5.93;;;11.00;99.90;;;;;;5022877;28;20226;-51
2021/11/18 13:03:35;;;;;;;7.07;6.07;;;11.10;99.90;;;;;;5034581;28;20230;-48
2021/11/18 13:06:02;;;;;;;6.68;6.00;;;11.10;99.90;;;;;;5028492;28;20593;-49